createdAt,value
2019-03-10T00:02:28.006Z,2.23
2019-03-10T00:04:59.341Z,1.80
2019-03-10T00:07:47.549Z,2.07
2019-03-10T00:10:19.849Z,3.03
2019-03-10T00:12:52.320Z,2.73
2019-03-10T00:15:25.943Z,1.87
2019-03-10T00:18:04.986Z,3.30
2019-03-10T00:20:36.630Z,2.70
2019-03-10T00:23:08.904Z,1.47
2019-03-10T00:25:39.589Z,1.13
2019-03-10T00:28:12.450Z,1.27
2019-03-10T00:30:46.930Z,1.23
2019-03-10T00:33:19.767Z,2.67
2019-03-10T00:35:51.538Z,2.10
2019-03-10T00:38:21.754Z,1.33
2019-03-10T00:41:14.784Z,1.60
2019-03-10T00:44:14.136Z,1.80
2019-03-10T00:47:04.735Z,1.97
2019-03-10T00:50:16.485Z,3.10
2019-03-10T00:52:52.615Z,2.10
2019-03-10T00:55:31.773Z,4.80
2019-03-10T00:58:06.454Z,6.13
2019-03-10T01:00:36.784Z,5.00
2019-03-10T01:03:14.327Z,3.90
2019-03-10T01:05:46.694Z,6.50
2019-03-10T01:08:30.480Z,5.87
2019-03-10T01:11:06.006Z,13.27
2019-03-10T01:13:43.064Z,4.43
2019-03-10T01:16:21.373Z,6.03
2019-03-10T01:18:59.073Z,10.17
2019-03-10T01:21:32.566Z,10.57
2019-03-10T01:24:10.073Z,4.77
2019-03-10T01:26:42.229Z,10.27
2019-03-10T01:29:21.358Z,10.27
2019-03-10T01:32:15.995Z,10.87
2019-03-10T01:37:51.981Z,10.77
2019-03-10T01:40:27.389Z,5.37
2019-03-10T01:42:59.277Z,8.40
2019-03-10T01:45:31.712Z,8.57
2019-03-10T01:48:03.600Z,6.10
2019-03-10T01:50:37.473Z,13.93
2019-03-10T01:53:08.533Z,7.73
2019-03-10T01:55:41.473Z,7.23
2019-03-10T01:58:14.975Z,8.07
2019-03-10T02:00:46.745Z,5.97
2019-03-10T02:03:22.993Z,6.77
2019-03-10T02:05:56.400Z,11.57
2019-03-10T02:08:29.888Z,8.23
2019-03-10T02:11:01.493Z,12.07
2019-03-10T02:13:32.333Z,12.03
2019-03-10T02:16:18.761Z,6.33
2019-03-10T02:18:57.211Z,10.43
2019-03-10T02:21:30.660Z,13.87
2019-03-10T02:24:04.393Z,9.63
2019-03-10T02:26:39.913Z,12.03
2019-03-10T02:29:18.659Z,12.77
2019-03-10T02:31:49.898Z,8.80
2019-03-10T02:34:23.931Z,12.80
2019-03-10T02:36:56.598Z,9.10
2019-03-10T02:39:26.474Z,7.20
2019-03-10T02:42:01.316Z,8.23
2019-03-10T02:44:36.595Z,9.33
2019-03-10T02:47:10.954Z,11.40
2019-03-10T02:49:44.810Z,6.27
2019-03-10T02:52:19.634Z,7.47
2019-03-10T02:54:51.774Z,9.93
2019-03-10T02:57:27.151Z,11.10
2019-03-10T03:00:02.354Z,7.63
2019-03-10T03:02:37.430Z,13.10
2019-03-10T03:05:13.627Z,8.10
2019-03-10T03:07:44.619Z,4.63
2019-03-10T03:10:21.230Z,9.30
2019-03-10T03:12:51.787Z,9.20
2019-03-10T03:15:29.182Z,6.93
2019-03-10T03:17:59.280Z,7.50
2019-03-10T03:20:33.005Z,8.23
2019-03-10T03:23:04.326Z,4.00
2019-03-10T03:25:37.706Z,9.60
2019-03-10T03:28:11.114Z,6.70
2019-03-10T03:30:42.505Z,5.70
2019-03-10T03:33:15.577Z,5.37
2019-03-10T03:35:58.342Z,6.50
2019-03-10T03:38:40.850Z,4.73
2019-03-10T03:41:21.244Z,4.43
2019-03-10T03:43:57.430Z,8.30
2019-03-10T03:46:28.265Z,7.17
2019-03-10T03:49:00.954Z,10.00
2019-03-10T03:51:33.446Z,12.33
2019-03-10T03:54:11.961Z,6.37
2019-03-10T03:56:45.055Z,9.03
2019-03-10T03:59:25.786Z,11.60
2019-03-10T04:02:04.274Z,10.13
2019-03-10T04:04:46.626Z,5.30
2019-03-10T04:07:18.580Z,14.07
2019-03-10T04:09:54.094Z,8.67
2019-03-10T04:12:25.848Z,13.97
2019-03-10T04:14:57.290Z,9.33
2019-03-10T04:17:31.477Z,11.90
2019-03-10T04:20:02.085Z,12.93
2019-03-10T04:22:34.125Z,10.83
2019-03-10T04:25:09.050Z,15.13
2019-03-10T04:27:38.956Z,9.60
2019-03-10T04:30:13.430Z,13.13
2019-03-10T04:32:46.156Z,13.87
2019-03-10T04:35:23.692Z,13.73
2019-03-10T04:37:55.976Z,14.57
2019-03-10T04:40:28.638Z,7.07
2019-03-10T04:43:00.102Z,9.73
2019-03-10T04:45:31.188Z,14.27
2019-03-10T04:48:01.261Z,15.33
2019-03-10T04:50:31.078Z,9.53
2019-03-10T04:53:01.410Z,13.83
2019-03-10T04:55:44.166Z,10.47
2019-03-10T04:58:20.388Z,11.20
2019-03-10T05:00:55.449Z,9.97
2019-03-10T05:03:31.733Z,11.37
2019-03-10T05:06:05.144Z,9.33
2019-03-10T05:08:36.665Z,10.70
2019-03-10T05:11:12.641Z,10.63
2019-03-10T05:13:46.790Z,11.07
2019-03-10T05:16:19.699Z,11.87
2019-03-10T05:18:50.874Z,10.47
2019-03-10T05:21:23.130Z,10.40
2019-03-10T05:23:53.087Z,4.07
2019-03-10T05:26:30.840Z,7.50
2019-03-10T05:29:04.991Z,6.60
2019-03-10T05:31:34.887Z,9.90
2019-03-10T05:34:09.277Z,7.87
2019-03-10T05:36:39.139Z,6.50
2019-03-10T05:39:09.034Z,3.87
2019-03-10T05:41:42.213Z,5.93
2019-03-10T05:44:15.894Z,6.57
2019-03-10T05:46:52.391Z,10.03
2019-03-10T05:49:36.927Z,7.63
2019-03-10T05:52:09.144Z,7.87
2019-03-10T05:54:44.567Z,7.80
2019-03-10T05:57:22.439Z,7.27
2019-03-10T05:59:55.435Z,8.90
2019-03-10T06:02:27.721Z,7.13
2019-03-10T06:04:58.795Z,6.80
2019-03-10T06:07:30.620Z,7.03
2019-03-10T06:10:03.541Z,6.20
2019-03-10T06:12:36.123Z,4.30
2019-03-10T06:15:10.933Z,3.10
2019-03-10T06:17:42.116Z,10.07
2019-03-10T06:20:14.833Z,4.47
2019-03-10T06:22:50.697Z,4.30
2019-03-10T06:25:27.253Z,2.93
2019-03-10T06:28:06.453Z,4.77
2019-03-10T06:30:39.405Z,5.03
2019-03-10T06:33:10.862Z,4.53
2019-03-10T06:35:45.914Z,3.50
2019-03-10T06:38:19.455Z,3.83
2019-03-10T06:40:58.683Z,4.97
2019-03-10T06:43:41.503Z,3.20
2019-03-10T06:46:35.292Z,2.93
2019-03-10T06:49:11.535Z,2.40
2019-03-10T06:51:52.483Z,1.67
2019-03-10T06:54:34.423Z,2.53
2019-03-10T06:57:17.124Z,1.30
2019-03-10T07:02:50.379Z,4.60
2019-03-10T07:05:23.447Z,1.60
2019-03-10T07:07:56.151Z,1.50
2019-03-10T07:10:26.411Z,1.60
2019-03-10T07:12:57.004Z,1.27
2019-03-10T07:15:31.188Z,1.73
2019-03-10T07:18:02.557Z,1.60
2019-03-10T07:20:41.977Z,3.80
2019-03-10T07:23:18.883Z,2.50
2019-03-10T07:26:08.462Z,1.73
2019-03-10T07:28:58.031Z,4.73
2019-03-10T07:31:40.580Z,5.33
2019-03-10T07:34:15.139Z,5.37
2019-03-10T07:37:08.204Z,7.90
2019-03-10T07:40:01.890Z,8.57
2019-03-10T07:42:36.920Z,6.27
2019-03-10T07:45:33.861Z,12.53
2019-03-10T07:48:13.876Z,12.03
2019-03-10T07:50:46.806Z,11.00
2019-03-10T07:53:38.952Z,7.20
2019-03-10T07:56:13.969Z,8.90
2019-03-10T07:58:58.520Z,6.73
2019-03-10T08:04:39.168Z,9.47
2019-03-10T08:07:35.120Z,11.13
2019-03-10T08:10:27.899Z,7.43
2019-03-10T08:13:14.691Z,4.90
2019-03-10T08:16:08.480Z,8.53
2019-03-10T08:18:56.336Z,6.13
2019-03-10T08:24:59.940Z,4.33
2019-03-10T08:27:37.798Z,9.30
2019-03-10T08:30:18.046Z,10.40
2019-03-10T08:32:57.452Z,6.73
2019-03-10T08:35:38.934Z,9.27
2019-03-10T08:38:21.190Z,6.30
2019-03-10T08:40:56.512Z,8.63
2019-03-10T08:43:47.297Z,7.27
2019-03-10T08:46:38.143Z,9.40
2019-03-10T08:49:31.435Z,13.80
2019-03-10T08:52:05.635Z,6.63
2019-03-10T08:54:49.766Z,9.70
2019-03-10T08:57:27.401Z,7.37
2019-03-10T09:00:12.634Z,10.10
2019-03-10T09:02:57.024Z,8.00
2019-03-10T09:05:41.126Z,10.73
2019-03-10T09:08:12.651Z,11.00
2019-03-10T09:11:09.139Z,11.63
2019-03-10T09:13:52.968Z,10.40
2019-03-10T09:16:37.397Z,9.83
2019-03-10T09:19:14.297Z,8.60
2019-03-10T09:21:47.616Z,9.43
2019-03-10T09:24:22.472Z,9.00
2019-03-10T09:27:17.295Z,13.83
2019-03-10T09:29:51.518Z,14.97
2019-03-10T09:32:41.488Z,9.87
2019-03-10T09:35:22.109Z,13.47
2019-03-10T09:37:56.482Z,9.07
2019-03-10T09:40:36.602Z,12.07
2019-03-10T09:43:13.519Z,16.07
2019-03-10T09:45:51.297Z,9.67
2019-03-10T09:48:43.962Z,14.03
2019-03-10T09:51:20.462Z,11.70
2019-03-10T09:54:05.839Z,14.80
2019-03-10T09:56:37.219Z,15.73
2019-03-10T09:59:19.130Z,14.37
2019-03-10T10:01:58.039Z,13.90
2019-03-10T10:04:41.098Z,8.80
2019-03-10T10:07:29.291Z,13.93
2019-03-10T10:10:05.971Z,18.73
2019-03-10T10:12:45.339Z,14.70
2019-03-10T10:15:33.656Z,17.83
2019-03-10T10:18:10.272Z,15.27
2019-03-10T10:20:47.342Z,10.03
2019-03-10T10:23:37.719Z,13.43
2019-03-10T10:26:11.203Z,16.20
2019-03-10T10:28:51.164Z,15.77
2019-03-10T10:31:31.602Z,12.20
2019-03-10T10:34:07.819Z,17.50
2019-03-10T10:36:47.211Z,15.83
2019-03-10T10:39:24.406Z,16.57
2019-03-10T10:42:01.345Z,12.83
2019-03-10T10:44:47.071Z,11.67
2019-03-10T10:47:23.162Z,11.53
2019-03-10T10:50:13.654Z,18.03
2019-03-10T10:53:03.612Z,10.60
2019-03-10T10:55:55.987Z,13.77
2019-03-10T10:58:33.987Z,10.07
2019-03-10T11:01:10.023Z,12.10
2019-03-10T11:04:01.947Z,8.63
2019-03-10T11:06:47.564Z,9.30
2019-03-10T11:09:38.096Z,12.73
2019-03-10T11:12:13.773Z,12.30
2019-03-10T11:14:56.940Z,10.97
2019-03-10T11:17:41.164Z,8.73
2019-03-10T11:20:20.562Z,12.53
2019-03-10T11:23:13.187Z,7.50
2019-03-10T11:26:02.019Z,8.33
2019-03-10T11:28:36.895Z,7.20
2019-03-10T11:31:29.259Z,13.73
2019-03-10T11:34:31.053Z,6.80
2019-03-10T11:37:04.734Z,6.17
2019-03-10T11:40:03.128Z,10.73
2019-03-10T11:42:46.825Z,12.30
2019-03-10T11:45:39.589Z,13.70
2019-03-10T11:48:29.977Z,9.77
2019-03-10T11:51:34.173Z,7.23
2019-03-10T11:54:36.963Z,9.83
2019-03-10T11:57:48.388Z,10.03
2019-03-10T12:00:31.064Z,9.67
2019-03-10T12:03:27.402Z,7.90
2019-03-10T12:06:07.788Z,10.20
2019-03-10T12:08:42.163Z,9.67
2019-03-10T12:11:17.803Z,9.73
2019-03-10T12:13:54.232Z,12.93
2019-03-10T12:16:26.070Z,8.17
2019-03-10T12:18:59.431Z,12.80
2019-03-10T12:21:37.608Z,11.60
2019-03-10T12:24:12.207Z,10.20
2019-03-10T12:26:45.212Z,9.87
2019-03-10T12:29:18.773Z,6.40
2019-03-10T12:31:50.533Z,7.03
2019-03-10T12:34:24.572Z,8.77
2019-03-10T12:36:58.605Z,9.17
2019-03-10T12:39:29.658Z,7.47
2019-03-10T12:42:03.008Z,6.87
2019-03-10T12:44:36.635Z,6.53
2019-03-10T12:47:08.473Z,7.07
2019-03-10T12:49:40.604Z,5.13
2019-03-10T12:52:11.052Z,10.83
2019-03-10T12:54:44.360Z,10.60
2019-03-10T12:57:29.442Z,5.77
2019-03-10T13:00:14.636Z,8.70
2019-03-10T13:02:48.109Z,5.87
2019-03-10T13:05:42.908Z,7.00
2019-03-10T13:08:18.144Z,9.07
2019-03-10T13:17:03.286Z,7.87
2019-03-10T13:19:36.738Z,5.93
2019-03-10T13:25:12.054Z,8.03
2019-03-10T13:30:36.970Z,7.07
2019-03-10T13:33:10.184Z,7.67
2019-03-10T13:35:43.086Z,4.73
2019-03-10T13:38:15.604Z,5.67
2019-03-10T13:40:50.912Z,7.50
2019-03-10T13:43:27.794Z,8.43
2019-03-10T13:46:13.293Z,7.60
2019-03-10T13:52:09.856Z,8.50
2019-03-10T13:58:02.978Z,5.07
2019-03-10T14:00:34.403Z,7.53
2019-03-10T14:03:15.079Z,6.97
2019-03-10T14:06:03.079Z,6.03
2019-03-10T14:11:53.505Z,6.60
2019-03-10T14:14:30.199Z,6.37
2019-03-10T14:17:20.447Z,7.50
2019-03-10T14:26:01.888Z,6.43
2019-03-10T14:28:36.650Z,8.53
2019-03-10T14:34:23.240Z,6.67
2019-03-10T14:36:56.343Z,7.93
2019-03-10T14:39:28.831Z,9.03
2019-03-10T14:42:03.554Z,8.67
2019-03-10T14:44:38.739Z,9.17
2019-03-10T14:47:24.522Z,6.87
2019-03-10T14:50:19.087Z,9.70
2019-03-10T14:52:58.355Z,5.90
2019-03-10T14:55:31.566Z,11.27
2019-03-10T14:58:12.602Z,9.40
2019-03-10T15:00:51.445Z,7.43
2019-03-10T15:03:27.134Z,7.13
2019-03-10T15:08:48.681Z,6.90
2019-03-10T15:11:21.099Z,7.50
2019-03-10T15:13:52.693Z,8.33
2019-03-10T15:19:17.423Z,5.57
2019-03-10T15:21:51.786Z,10.10
2019-03-10T15:24:26.385Z,10.00
2019-03-10T15:27:02.435Z,10.00
2019-03-10T15:29:39.408Z,8.90
2019-03-10T15:32:14.227Z,9.87
2019-03-10T15:34:59.837Z,7.47
2019-03-10T15:37:52.188Z,8.00
2019-03-10T15:40:25.675Z,8.37
2019-03-10T15:42:58.485Z,5.67
2019-03-10T15:48:39.121Z,6.70
2019-03-10T15:51:15.461Z,10.20
2019-03-10T15:57:06.141Z,9.43
2019-03-10T15:59:44.761Z,10.43
2019-03-10T16:02:21.889Z,10.43
2019-03-10T16:04:58.152Z,7.03
2019-03-10T16:07:32.050Z,8.30
2019-03-10T16:10:17.986Z,6.53
2019-03-10T16:13:10.086Z,9.83
2019-03-10T16:15:44.942Z,9.33
2019-03-10T16:18:13.254Z,6.27
2019-03-10T16:20:45.773Z,6.30
2019-03-10T16:23:23.541Z,5.87
2019-03-10T16:25:54.461Z,5.67
2019-03-10T16:28:27.325Z,5.63
2019-03-10T16:31:15.657Z,3.53
2019-03-10T16:33:46.814Z,3.67
2019-03-10T16:36:21.306Z,3.57
2019-03-10T16:38:51.225Z,2.97
2019-03-10T16:41:22.416Z,3.83
2019-03-10T16:44:02.285Z,5.53
2019-03-10T16:46:36.089Z,4.23
2019-03-10T16:49:21.007Z,4.40
2019-03-10T16:51:59.271Z,3.63
2019-03-10T16:54:30.667Z,3.33
2019-03-10T16:57:00.786Z,6.00
2019-03-10T16:59:35.374Z,4.10
2019-03-10T17:02:06.775Z,4.17
2019-03-10T17:04:42.377Z,4.33
2019-03-10T17:07:17.105Z,4.47
2019-03-10T17:09:53.896Z,4.03
2019-03-10T17:12:28.244Z,3.17
2019-03-10T17:15:03.183Z,5.73
2019-03-10T17:17:34.086Z,6.67
2019-03-10T17:20:20.494Z,7.73
2019-03-10T17:22:55.084Z,10.73
2019-03-10T17:25:27.568Z,11.87
2019-03-10T17:28:04.350Z,8.93
2019-03-10T17:30:47.224Z,14.87
2019-03-10T17:33:20.449Z,11.10
2019-03-10T17:35:55.295Z,7.43
2019-03-10T17:38:29.259Z,8.70
2019-03-10T17:41:03.994Z,8.80
2019-03-10T17:53:07.471Z,5.33
2019-03-10T18:46:29.504Z,9.83
2019-03-10T18:49:08.051Z,14.23
2019-03-10T18:55:40.895Z,27.03
2019-03-10T19:02:06.997Z,21.13
2019-03-10T19:28:34.015Z,32.50
2019-03-10T23:28:03.291Z,6.87
2019-03-10T23:30:25.079Z,4.90
2019-03-10T23:45:32.302Z,8.73
2019-03-10T23:51:12.246Z,7.13
2019-03-10T23:56:57.289Z,9.43
2019-03-10T23:59:35.084Z,8.40
